Time;durP1;ratioP1;P1;durP2;ratioP2;P2;SDS_P1;SDS_P2;PMS_P1;PMS_P2;Temp;Humidity;BMP_temperature;BMP_pressure;BME280_temperature;BME280_humidity;BME280_pressure;Samples;Min_cycle;Max_cycle;Signal;HPM_P1;HPM_P2
2022/10/12 00:01:43;;;;;;;23.92;12.93;;;14.00;99.90;;;;;;5088388;28;20489;-82
2022/10/12 00:04:10;;;;;;;22.95;12.18;;;14.00;99.90;;;;;;5084343;28;20066;-81
2022/10/12 00:06:37;;;;;;;27.55;12.40;;;14.00;99.90;;;;;;5077424;28;20526;-81
2022/10/12 00:09:05;;;;;;;20.95;11.95;;;13.90;99.90;;;;;;5089142;28;20055;-82
2022/10/12 00:11:31;;;;;;;19.70;11.57;;;13.90;99.90;;;;;;5087182;28;20076;-83
2022/10/12 00:13:59;;;;;;;20.73;10.98;;;14.00;99.90;;;;;;5081930;28;20166;-82
2022/10/12 00:16:30;;;;;;;20.60;12.07;;;14.00;99.90;;;;;;5080299;28;20040;-80
2022/10/12 00:18:57;;;;;;;24.63;11.07;;;14.00;99.90;;;;;;5090741;28;20044;-81
2022/10/12 00:21:25;;;;;;;17.50;10.48;;;14.00;99.90;;;;;;5067071;28;20052;-83
2022/10/12 00:23:56;;;;;;;17.80;10.68;;;14.10;99.90;;;;;;5073250;28;20422;-83
2022/10/12 00:26:23;;;;;;;20.05;10.35;;;14.10;99.90;;;;;;5088529;28;20048;-82
2022/10/12 00:28:56;;;;;;;24.55;10.73;;;14.10;99.90;;;;;;5086702;28;20147;-81
2022/10/12 00:31:23;;;;;;;16.48;10.15;;;14.20;99.90;;;;;;5057970;28;20098;-83
2022/10/12 00:33:50;;;;;;;22.55;11.13;;;14.20;99.90;;;;;;5063427;28;20074;-83
2022/10/12 00:36:23;;;;;;;24.02;11.15;;;14.20;99.90;;;;;;5072586;28;20067;-84
2022/10/12 00:38:51;;;;;;;16.90;10.32;;;14.20;99.90;;;;;;5069059;28;20059;-82
2022/10/12 00:41:20;;;;;;;22.17;11.00;;;14.30;99.90;;;;;;5049112;28;20059;-83
2022/10/12 00:43:47;;;;;;;19.33;9.57;;;14.20;99.90;;;;;;5086458;28;20508;-82
2022/10/12 00:46:29;;;;;;;21.45;11.15;;;14.30;99.90;;;;;;5069005;28;20052;-84
2022/10/12 00:49:08;;;;;;;21.65;10.25;;;14.30;99.90;;;;;;5061916;28;20143;-84
2022/10/12 00:51:36;;;;;;;17.35;10.13;;;14.30;99.90;;;;;;5076097;28;20056;-83
2022/10/12 00:54:07;;;;;;;15.93;10.57;;;14.30;99.90;;;;;;5074631;28;20052;-83
2022/10/12 00:56:38;;;;;;;17.23;10.25;;;14.40;99.90;;;;;;5095525;28;20070;-83
2022/10/12 00:59:09;;;;;;;20.65;10.23;;;14.40;99.90;;;;;;5097390;28;20051;-82
2022/10/12 01:01:37;;;;;;;18.70;10.35;;;14.40;99.90;;;;;;5100718;28;20112;-84
2022/10/12 01:04:05;;;;;;;16.63;9.23;;;14.50;99.90;;;;;;5091634;28;20111;-84
2022/10/12 01:06:33;;;;;;;17.98;10.00;;;14.50;99.90;;;;;;5067442;28;20313;-83
2022/10/12 01:09:00;;;;;;;17.55;8.63;;;14.40;99.90;;;;;;5077434;28;20059;-83
2022/10/12 01:11:27;;;;;;;16.05;9.50;;;14.40;99.90;;;;;;5094797;28;20091;-84
2022/10/12 01:13:54;;;;;;;20.63;8.43;;;14.40;99.90;;;;;;5089462;28;20071;-84
2022/10/12 01:16:35;;;;;;;32.72;8.50;;;14.40;99.90;;;;;;5084472;28;20049;-82
2022/10/12 01:19:27;;;;;;;16.55;9.30;;;14.30;99.90;;;;;;5089545;28;20048;-84
2022/10/12 01:22:16;;;;;;;16.98;9.25;;;14.30;99.90;;;;;;5073788;28;20378;-83
2022/10/12 01:25:09;;;;;;;14.45;8.30;;;14.30;99.90;;;;;;5084636;28;20045;-83
2022/10/12 01:27:48;;;;;;;17.17;8.20;;;14.20;99.90;;;;;;5070053;28;20060;-84
2022/10/12 01:30:25;;;;;;;18.60;7.97;;;14.20;99.90;;;;;;5085665;28;20044;-83
2022/10/12 01:33:01;;;;;;;16.40;6.03;;;14.20;99.90;;;;;;5085678;28;20064;-83
2022/10/12 01:35:35;;;;;;;19.80;6.40;;;14.00;99.90;;;;;;5059563;28;20049;-83
2022/10/12 01:38:28;;;;;;;16.48;6.32;;;14.00;99.90;;;;;;5087461;28;20060;-84
2022/10/12 01:41:13;;;;;;;21.27;6.25;;;14.00;99.90;;;;;;5083320;28;20060;-83
2022/10/12 01:43:42;;;;;;;15.48;5.28;;;14.00;99.90;;;;;;5073256;28;20049;-83
2022/10/12 01:46:15;;;;;;;13.20;5.22;;;14.00;99.90;;;;;;5095010;28;20048;-84
2022/10/12 01:48:44;;;;;;;12.75;5.15;;;14.10;99.90;;;;;;5071320;28;20070;-82
2022/10/12 01:51:22;;;;;;;14.70;5.22;;;14.10;99.90;;;;;;5081652;28;20054;-83
2022/10/12 01:54:07;;;;;;;13.85;5.35;;;14.10;99.90;;;;;;5080657;28;20041;-83
2022/10/12 01:56:57;;;;;;;14.63;5.53;;;14.10;99.90;;;;;;5070500;28;20055;-84
2022/10/12 01:59:53;;;;;;;17.15;5.60;;;14.20;99.90;;;;;;5070069;28;20940;-84
2022/10/12 02:02:40;;;;;;;36.00;10.02;;;14.20;99.90;;;;;;5067941;28;20063;-83
2022/10/12 02:05:25;;;;;;;42.38;13.25;;;14.20;99.90;;;;;;5087692;28;20143;-81
2022/10/12 02:08:01;;;;;;;31.17;12.38;;;14.20;99.90;;;;;;5078377;28;20080;-82
2022/10/12 02:10:35;;;;;;;30.23;10.98;;;14.20;99.90;;;;;;5079726;28;20991;-83
2022/10/12 02:13:07;;;;;;;30.65;11.85;;;14.20;99.90;;;;;;5055171;28;20040;-83
2022/10/12 02:15:37;;;;;;;31.05;11.13;;;14.20;99.90;;;;;;5080118;28;20044;-81
2022/10/12 02:18:05;;;;;;;36.30;11.65;;;14.20;99.90;;;;;;5082332;28;20417;-82
2022/10/12 02:20:32;;;;;;;29.55;11.02;;;14.20;99.90;;;;;;5080142;28;20144;-82
2022/10/12 02:23:01;;;;;;;32.60;11.75;;;14.20;99.90;;;;;;5073352;28;20044;-83
2022/10/12 02:25:30;;;;;;;28.80;10.85;;;14.30;99.90;;;;;;5068116;28;20055;-82
2022/10/12 02:28:09;;;;;;;37.42;12.52;;;14.30;99.90;;;;;;5078211;28;20124;-82
2022/10/12 02:30:47;;;;;;;32.38;11.90;;;14.30;99.90;;;;;;5072678;28;20063;-82
2022/10/12 02:33:23;;;;;;;37.38;13.40;;;14.30;99.90;;;;;;5084975;28;20044;-83
2022/10/12 02:35:59;;;;;;;46.40;15.48;;;14.30;99.90;;;;;;5082508;28;20058;-82
2022/10/12 02:38:34;;;;;;;48.65;14.48;;;14.30;99.90;;;;;;5094245;28;20075;-84
2022/10/12 02:41:15;;;;;;;38.53;13.32;;;14.30;99.90;;;;;;5104955;28;20052;-80
2022/10/12 02:43:58;;;;;;;35.50;13.45;;;14.40;99.90;;;;;;5055173;28;20502;-83
2022/10/12 02:46:26;;;;;;;31.55;13.77;;;14.30;99.90;;;;;;5045408;28;20044;-80
2022/10/12 02:48:54;;;;;;;41.97;13.52;;;14.30;99.90;;;;;;5074809;28;20048;-82
2022/10/12 02:51:22;;;;;;;36.67;13.45;;;14.30;99.90;;;;;;5078785;28;20044;-81
2022/10/12 02:53:49;;;;;;;35.78;11.85;;;14.30;99.90;;;;;;5081396;28;20139;-82
2022/10/12 02:56:16;;;;;;;41.33;13.73;;;14.40;99.90;;;;;;5091922;28;20055;-84
2022/10/12 02:58:44;;;;;;;41.08;15.50;;;14.30;99.90;;;;;;5084749;28;20123;-83
2022/10/12 03:01:12;;;;;;;40.78;14.02;;;14.30;99.90;;;;;;5083311;28;20060;-82
2022/10/12 03:03:39;;;;;;;31.98;13.30;;;14.30;99.90;;;;;;5076293;28;20044;-82
2022/10/12 03:06:06;;;;;;;43.08;14.18;;;14.30;99.90;;;;;;5070855;28;20087;-83
2022/10/12 03:08:33;;;;;;;39.60;14.07;;;14.30;99.90;;;;;;5067776;28;20552;-82
2022/10/12 03:11:04;;;;;;;41.17;14.20;;;14.30;99.90;;;;;;5062636;28;20045;-82
2022/10/12 03:13:31;;;;;;;38.88;13.88;;;14.30;99.90;;;;;;5092582;28;20508;-83
2022/10/12 03:16:09;;;;;;;42.45;15.13;;;14.30;99.90;;;;;;5072514;28;20057;-83
2022/10/12 03:18:37;;;;;;;51.33;17.40;;;14.30;99.90;;;;;;5084328;28;20074;-84
2022/10/12 03:21:04;;;;;;;45.25;16.98;;;14.30;99.90;;;;;;5060162;28;20054;-84
2022/10/12 03:23:30;;;;;;;46.38;16.45;;;14.30;99.90;;;;;;5092303;28;20576;-83
2022/10/12 03:25:57;;;;;;;47.00;16.27;;;14.30;99.90;;;;;;5070385;28;20040;-84
2022/10/12 03:28:24;;;;;;;58.60;17.70;;;14.30;99.90;;;;;;5083573;28;20072;-83
2022/10/12 03:30:51;;;;;;;53.58;18.13;;;14.30;99.90;;;;;;5064620;28;20119;-82
2022/10/12 03:33:18;;;;;;;58.35;19.02;;;14.30;99.90;;;;;;5091984;28;20047;-83
2022/10/12 03:35:45;;;;;;;60.75;19.83;;;14.30;99.90;;;;;;5082933;28;21227;-84
2022/10/12 03:38:13;;;;;;;61.67;19.83;;;14.30;99.90;;;;;;5077067;28;20135;-83
2022/10/12 03:40:40;;;;;;;65.63;18.45;;;14.30;99.90;;;;;;5082567;28;20068;-82
2022/10/12 03:43:07;;;;;;;59.45;18.83;;;14.30;99.90;;;;;;5068375;28;20064;-83
2022/10/12 03:45:34;;;;;;;56.35;18.33;;;14.30;99.90;;;;;;5083527;28;20521;-82
2022/10/12 03:48:01;;;;;;;51.55;17.42;;;14.20;99.90;;;;;;5071675;28;20056;-85
2022/10/12 03:50:33;;;;;;;47.05;16.40;;;14.40;99.90;;;;;;5084088;28;20123;-83
2022/10/12 03:53:30;;;;;;;42.72;16.17;;;14.30;99.90;;;;;;5077611;28;20204;-84
2022/10/12 03:56:15;;;;;;;34.25;14.55;;;14.30;99.90;;;;;;5097294;28;20103;-86
2022/10/12 03:58:41;;;;;;;34.78;14.23;;;14.20;99.90;;;;;;5105663;28;20112;-87
2022/10/12 04:01:08;;;;;;;37.85;14.48;;;14.20;99.90;;;;;;5108357;28;20055;-86
2022/10/12 04:03:35;;;;;;;35.35;15.13;;;14.20;99.90;;;;;;5102004;28;20055;-86
2022/10/12 04:06:02;;;;;;;39.22;14.13;;;14.20;99.90;;;;;;5089320;28;20059;-83
2022/10/12 04:08:29;;;;;;;35.45;15.25;;;14.20;99.90;;;;;;5070923;28;20056;-84
2022/10/12 04:10:56;;;;;;;41.58;16.67;;;14.20;99.90;;;;;;5073559;28;20056;-82
2022/10/12 04:13:23;;;;;;;41.38;17.08;;;14.20;99.90;;;;;;5089587;28;20053;-84
2022/10/12 04:15:50;;;;;;;46.40;17.35;;;14.20;99.90;;;;;;5091159;28;20048;-84
2022/10/12 04:18:16;;;;;;;41.22;16.60;;;14.20;99.90;;;;;;5084156;28;20594;-84
2022/10/12 04:20:47;;;;;;;42.22;17.60;;;14.20;99.90;;;;;;5084120;28;20045;-83
2022/10/12 04:23:13;;;;;;;34.42;16.25;;;14.20;99.90;;;;;;5087544;28;20048;-84
2022/10/12 04:25:40;;;;;;;37.50;16.92;;;14.20;99.90;;;;;;5095489;28;20051;-82
2022/10/12 04:28:07;;;;;;;38.63;14.90;;;14.20;99.90;;;;;;5084841;28;20059;-84
2022/10/12 04:30:34;;;;;;;36.85;16.75;;;14.20;99.90;;;;;;5098549;28;20071;-84
2022/10/12 04:33:01;;;;;;;33.95;15.60;;;14.20;99.90;;;;;;5093259;28;20070;-83
2022/10/12 04:35:28;;;;;;;28.55;14.32;;;14.20;99.90;;;;;;5090655;28;20421;-83
2022/10/12 04:37:54;;;;;;;26.83;13.73;;;14.20;99.90;;;;;;5084969;28;20048;-83
2022/10/12 04:40:21;;;;;;;28.73;13.23;;;14.20;99.90;;;;;;5076105;28;20429;-83
2022/10/12 04:42:48;;;;;;;24.48;12.32;;;14.20;99.90;;;;;;5094109;28;20515;-83
2022/10/12 04:45:15;;;;;;;26.55;12.40;;;14.20;99.90;;;;;;5071579;28;20434;-84
2022/10/12 04:47:41;;;;;;;26.50;13.30;;;14.20;99.90;;;;;;5082687;28;20609;-83
2022/10/12 04:50:08;;;;;;;26.10;12.18;;;14.20;99.90;;;;;;5085310;28;20130;-82
2022/10/12 04:52:35;;;;;;;23.00;11.90;;;14.20;99.90;;;;;;5093312;28;20138;-83
2022/10/12 04:55:01;;;;;;;18.50;11.27;;;14.20;99.90;;;;;;5065632;28;20059;-82
2022/10/12 04:57:28;;;;;;;22.42;11.80;;;14.20;99.90;;;;;;5062681;28;20417;-83
2022/10/12 04:59:55;;;;;;;21.63;10.95;;;14.20;99.90;;;;;;5066274;28;20040;-83
2022/10/12 05:02:21;;;;;;;18.92;11.70;;;14.20;99.90;;;;;;5084336;28;20048;-83
2022/10/12 05:04:48;;;;;;;19.30;11.52;;;14.10;99.90;;;;;;5083972;28;20136;-83
2022/10/12 05:07:15;;;;;;;19.90;11.60;;;14.20;99.90;;;;;;5081987;28;20048;-85
2022/10/12 05:09:42;;;;;;;20.90;11.25;;;14.20;99.90;;;;;;5092646;28;20044;-83
2022/10/12 05:12:08;;;;;;;27.13;11.57;;;14.20;99.90;;;;;;5069281;28;20063;-83
2022/10/12 05:14:35;;;;;;;23.30;11.20;;;14.20;99.90;;;;;;5060821;28;20216;-82
2022/10/12 05:17:02;;;;;;;23.23;10.68;;;14.10;99.90;;;;;;5087651;28;20504;-83
2022/10/12 05:19:29;;;;;;;25.83;11.10;;;14.10;99.90;;;;;;5066316;28;20116;-84
2022/10/12 05:21:56;;;;;;;23.67;10.75;;;14.10;99.90;;;;;;5080386;28;20578;-82
2022/10/12 05:24:22;;;;;;;23.02;11.93;;;14.10;99.90;;;;;;5073858;28;20044;-82
2022/10/12 05:26:49;;;;;;;17.10;9.13;;;14.10;99.90;;;;;;5092420;28;20052;-83
2022/10/12 05:29:16;;;;;;;20.80;9.90;;;14.10;99.90;;;;;;5087553;28;20057;-82
2022/10/12 05:31:42;;;;;;;26.02;9.95;;;14.10;99.90;;;;;;5081300;28;20076;-84
2022/10/12 05:34:09;;;;;;;17.45;8.70;;;14.10;99.90;;;;;;5067954;28;20106;-83
2022/10/12 05:36:36;;;;;;;17.17;8.00;;;14.10;99.90;;;;;;5089179;28;20048;-82
2022/10/12 05:39:03;;;;;;;16.98;7.95;;;14.10;99.90;;;;;;5062983;28;20057;-82
2022/10/12 05:41:29;;;;;;;13.27;7.80;;;14.10;99.90;;;;;;5078030;28;20047;-83
2022/10/12 05:43:56;;;;;;;11.80;8.05;;;14.10;99.90;;;;;;5055426;28;20045;-83
2022/10/12 05:46:23;;;;;;;14.45;7.43;;;14.10;99.90;;;;;;5067468;28;20048;-83
2022/10/12 05:48:49;;;;;;;13.73;7.90;;;14.10;99.90;;;;;;5079550;28;20135;-83
2022/10/12 05:51:16;;;;;;;14.52;8.20;;;14.10;99.90;;;;;;5058047;28;20417;-83
2022/10/12 05:53:43;;;;;;;16.75;8.65;;;14.00;99.90;;;;;;5094473;28;20476;-84
2022/10/12 05:56:10;;;;;;;19.83;9.15;;;14.00;99.90;;;;;;5070075;28;20045;-85
2022/10/12 05:58:36;;;;;;;18.98;9.75;;;14.00;99.90;;;;;;5080133;28;20128;-84
2022/10/12 06:01:09;;;;;;;17.15;9.05;;;14.00;99.90;;;;;;5087188;28;20044;-84
2022/10/12 06:03:36;;;;;;;15.60;8.82;;;14.00;99.90;;;;;;5090401;28;20448;-83
2022/10/12 06:06:03;;;;;;;28.30;10.73;;;14.10;99.90;;;;;;5066992;28;20103;-84
2022/10/12 06:08:31;;;;;;;16.67;9.43;;;14.10;99.90;;;;;;5072030;28;20176;-82
2022/10/12 06:10:58;;;;;;;25.05;9.57;;;14.10;99.90;;;;;;5087649;28;20461;-84
2022/10/12 06:13:25;;;;;;;15.40;8.93;;;14.10;99.90;;;;;;5087385;28;20470;-83
2022/10/12 06:15:52;;;;;;;17.42;9.65;;;14.10;99.90;;;;;;5077786;28;20518;-84
2022/10/12 06:18:18;;;;;;;18.27;10.77;;;14.10;99.90;;;;;;5084581;28;20044;-83
2022/10/12 06:20:51;;;;;;;29.13;13.23;;;14.10;99.90;;;;;;5088811;28;20059;-84
2022/10/12 06:23:37;;;;;;;61.08;18.42;;;14.10;99.90;;;;;;5081512;28;20048;-83
2022/10/12 06:26:04;;;;;;;79.28;21.38;;;14.10;99.90;;;;;;5079867;28;20055;-82
2022/10/12 06:28:31;;;;;;;92.93;23.45;;;14.10;99.90;;;;;;5098536;28;20040;-81
2022/10/12 06:30:59;;;;;;;106.05;25.35;;;14.10;99.90;;;;;;5098826;28;20104;-83
2022/10/12 06:33:26;;;;;;;105.30;25.05;;;14.10;99.90;;;;;;5081615;28;20081;-81
2022/10/12 06:35:54;;;;;;;107.88;26.15;;;14.10;99.90;;;;;;5080020;28;20058;-81
2022/10/12 06:38:21;;;;;;;119.85;24.77;;;14.00;99.90;;;;;;5088634;28;20056;-82
2022/10/12 06:40:48;;;;;;;89.55;24.77;;;14.00;99.90;;;;;;5084158;28;20075;-81
2022/10/12 06:43:15;;;;;;;115.32;23.25;;;14.00;99.90;;;;;;5076954;28;20058;-81
2022/10/12 06:45:41;;;;;;;75.47;18.15;;;13.90;99.90;;;;;;5089397;28;20048;-82
2022/10/12 06:48:08;;;;;;;67.45;19.80;;;13.80;99.90;;;;;;5085991;28;20059;-81
2022/10/12 06:50:35;;;;;;;73.70;19.95;;;13.80;99.90;;;;;;5066241;28;20057;-83
2022/10/12 06:53:02;;;;;;;84.07;19.17;;;13.90;99.90;;;;;;5076469;28;20055;-81
2022/10/12 06:55:29;;;;;;;76.78;18.20;;;13.90;99.90;;;;;;5066291;28;20067;-81
2022/10/12 06:57:55;;;;;;;70.25;18.55;;;14.00;99.90;;;;;;5081010;28;20051;-83
2022/10/12 07:00:22;;;;;;;85.80;19.23;;;14.00;99.90;;;;;;5059054;28;20040;-82
2022/10/12 07:02:50;;;;;;;75.65;19.45;;;14.00;99.90;;;;;;5062141;28;20267;-81
2022/10/12 07:05:18;;;;;;;87.32;19.10;;;14.10;99.90;;;;;;5084449;28;20099;-81
2022/10/12 07:07:44;;;;;;;93.85;18.55;;;14.00;99.90;;;;;;5082975;28;20054;-82
2022/10/12 07:10:11;;;;;;;86.57;19.40;;;14.00;99.90;;;;;;5054702;28;20048;-83
2022/10/12 07:12:38;;;;;;;76.22;18.92;;;14.00;99.90;;;;;;5085571;28;20044;-81
2022/10/12 07:15:06;;;;;;;80.25;19.55;;;14.00;99.90;;;;;;5067878;28;20047;-81
2022/10/12 07:17:33;;;;;;;63.20;18.10;;;14.00;99.90;;;;;;5080934;28;20048;-81
2022/10/12 07:20:00;;;;;;;55.97;17.75;;;14.00;99.90;;;;;;5066440;28;20494;-81
2022/10/12 07:22:27;;;;;;;68.63;18.45;;;14.10;99.90;;;;;;5088858;28;20039;-82
2022/10/12 07:24:53;;;;;;;57.67;17.40;;;14.20;99.90;;;;;;5070392;28;20532;-81
2022/10/12 07:27:20;;;;;;;50.33;17.20;;;14.30;99.90;;;;;;5076622;28;20057;-83
2022/10/12 07:29:47;;;;;;;66.63;19.08;;;14.30;99.90;;;;;;5085242;28;20131;-82
2022/10/12 07:32:14;;;;;;;59.42;18.75;;;14.30;99.90;;;;;;5087795;28;20055;-83
2022/10/12 07:34:43;;;;;;;67.03;16.38;;;14.40;99.90;;;;;;5064641;28;20045;-82
2022/10/12 07:37:10;;;;;;;56.83;18.00;;;14.50;99.90;;;;;;5081245;28;20051;-82
2022/10/12 07:39:38;;;;;;;62.58;18.85;;;14.50;99.90;;;;;;5089453;28;20052;-81
2022/10/12 07:42:04;;;;;;;53.78;16.88;;;14.50;99.90;;;;;;5081891;28;20044;-83
2022/10/12 07:44:31;;;;;;;50.97;17.10;;;14.60;99.90;;;;;;5069119;28;20045;-81
2022/10/12 07:46:58;;;;;;;57.08;16.92;;;14.60;99.90;;;;;;5060067;28;20055;-83
2022/10/12 07:49:25;;;;;;;52.83;16.20;;;14.70;99.90;;;;;;5079890;28;20489;-82
2022/10/12 07:51:52;;;;;;;40.10;14.90;;;14.70;99.90;;;;;;5062528;28;20121;-82
2022/10/12 07:54:18;;;;;;;45.08;15.43;;;14.70;99.90;;;;;;5081406;28;20041;-84
2022/10/12 07:56:51;;;;;;;35.65;14.85;;;14.70;99.90;;;;;;5074603;28;20045;-82
2022/10/12 07:59:17;;;;;;;37.35;15.82;;;14.80;99.90;;;;;;5074665;28;20049;-83
2022/10/12 08:01:44;;;;;;;33.90;14.40;;;14.90;99.90;;;;;;5077814;28;20052;-82
2022/10/12 08:04:11;;;;;;;38.45;15.20;;;14.90;99.90;;;;;;5071661;28;20048;-82
2022/10/12 08:06:41;;;;;;;32.10;14.32;;;15.00;99.90;;;;;;5073999;28;20048;-82
2022/10/12 08:09:08;;;;;;;;;;;15.10;99.90;;;;;;5064323;28;20058;-82
2022/10/12 08:11:39;;;;;;;32.00;13.90;;;15.10;99.90;;;;;;5075046;28;19920;-81
2022/10/12 08:14:10;;;;;;;28.63;12.82;;;15.10;99.90;;;;;;5080102;28;20056;-84
2022/10/12 08:16:37;;;;;;;28.88;14.32;;;15.20;99.90;;;;;;5074636;28;20041;-84
2022/10/12 08:19:04;;;;;;;28.95;12.38;;;15.20;99.90;;;;;;5062337;28;20052;-84
2022/10/12 08:21:30;;;;;;;28.27;12.98;;;15.30;99.90;;;;;;5078028;28;20036;-82
2022/10/12 08:23:57;;;;;;;31.13;13.05;;;15.30;99.90;;;;;;5068427;28;20657;-82
2022/10/12 08:26:24;;;;;;;30.10;14.65;;;15.40;99.90;;;;;;5063969;28;20045;-81
2022/10/12 08:28:50;;;;;;;25.90;12.38;;;15.50;99.90;;;;;;5073235;28;20045;-82
2022/10/12 08:31:18;;;;;;;27.50;12.32;;;15.40;99.90;;;;;;5081999;28;20040;-82
2022/10/12 08:33:45;;;;;;;25.38;12.38;;;15.40;99.90;;;;;;5074144;28;20493;-84
2022/10/12 08:36:12;;;;;;;37.15;15.07;;;15.40;99.90;;;;;;5062427;28;20059;-83
2022/10/12 08:38:39;;;;;;;34.92;14.18;;;15.50;99.90;;;;;;5078560;28;20045;-84
2022/10/12 08:41:27;;;;;;;38.80;14.85;;;15.50;99.90;;;;;;5073557;28;20524;-82
2022/10/12 08:43:54;;;;;;;44.30;15.52;;;15.50;99.90;;;;;;5074966;28;20044;-84
2022/10/12 08:46:24;;;;;;;51.55;16.15;;;15.40;99.90;;;;;;5057599;28;20045;-85
2022/10/12 08:49:15;;;;;;;51.88;17.70;;;15.50;99.90;;;;;;5066776;28;20051;-83
2022/10/12 08:51:52;;;;;;;53.75;16.80;;;15.50;99.90;;;;;;5085446;28;20104;-84
2022/10/12 08:54:26;;;;;;;48.78;15.52;;;15.60;99.90;;;;;;5063093;28;20112;-84
2022/10/12 08:56:54;;;;;;;41.28;16.35;;;15.70;99.90;;;;;;5083020;28;20044;-83
2022/10/12 08:59:22;;;;;;;52.55;18.17;;;15.70;99.90;;;;;;5089939;28;20048;-84
2022/10/12 09:02:10;;;;;;;41.67;14.95;;;15.80;99.90;;;;;;5085130;28;20105;-83
2022/10/12 09:04:52;;;;;;;37.50;14.68;;;15.60;99.90;;;;;;5077343;28;20045;-83
2022/10/12 09:07:35;;;;;;;50.00;18.75;;;15.50;99.90;;;;;;5083348;28;20047;-84
2022/10/12 09:10:13;;;;;;;51.97;17.40;;;15.60;99.90;;;;;;5073311;28;20044;-83
2022/10/12 09:13:03;;;;;;;56.05;17.60;;;15.50;99.90;;;;;;5060775;28;20525;-84
2022/10/12 09:15:44;;;;;;;47.20;17.17;;;15.60;99.90;;;;;;5093733;28;20051;-83
2022/10/12 09:18:21;;;;;;;44.42;17.77;;;15.60;99.90;;;;;;5088702;28;20044;-85
2022/10/12 09:20:50;;;;;;;37.42;15.52;;;15.70;99.90;;;;;;5078491;28;20061;-82
2022/10/12 09:23:30;;;;;;;44.23;17.17;;;15.70;99.90;;;;;;5081992;28;20072;-83
2022/10/12 09:26:05;;;;;;;55.95;18.40;;;15.70;99.90;;;;;;5072913;28;20044;-85
2022/10/12 09:28:40;;;;;;;48.60;17.85;;;15.70;99.90;;;;;;5082502;28;20055;-84
2022/10/12 09:31:25;;;;;;;40.45;15.63;;;15.70;99.90;;;;;;5077705;28;20054;-84
2022/10/12 09:34:01;;;;;;;45.53;15.77;;;15.70;99.90;;;;;;5072330;28;20044;-84
2022/10/12 09:36:33;;;;;;;37.78;16.08;;;15.70;99.90;;;;;;5069733;28;20051;-83
2022/10/12 09:39:03;;;;;;;35.50;15.18;;;15.60;99.90;;;;;;5077444;28;20132;-85
2022/10/12 09:41:39;;;;;;;28.13;13.95;;;15.70;99.90;;;;;;5086682;28;20408;-84
2022/10/12 09:44:17;;;;;;;32.75;15.23;;;15.70;99.90;;;;;;5086516;28;20055;-84
2022/10/12 09:46:54;;;;;;;42.05;13.68;;;15.80;99.90;;;;;;5081976;28;20047;-83
2022/10/12 09:49:21;;;;;;;33.97;14.20;;;16.00;99.90;;;;;;5083054;28;20569;-83
2022/10/12 09:51:58;;;;;;;27.42;12.65;;;16.00;99.90;;;;;;5092368;28;20494;-82
2022/10/12 09:54:26;;;;;;;27.83;12.38;;;16.10;99.90;;;;;;5085238;28;20055;-83
2022/10/12 09:56:54;;;;;;;31.70;13.48;;;16.10;99.90;;;;;;5073804;28;20421;-84
2022/10/12 09:59:32;;;;;;;34.92;13.02;;;16.20;99.90;;;;;;5070476;28;20109;-84
2022/10/12 10:02:11;;;;;;;32.13;13.00;;;16.40;99.90;;;;;;5089446;28;20071;-84
2022/10/12 10:04:38;;;;;;;28.88;13.15;;;16.40;99.90;;;;;;5062655;28;20059;-83
2022/10/12 10:07:24;;;;;;;27.77;13.98;;;16.40;99.90;;;;;;5083546;28;20051;-83
2022/10/12 10:10:21;;;;;;;33.63;13.63;;;16.40;99.90;;;;;;5084927;28;20568;-82
2022/10/12 10:12:55;;;;;;;29.23;13.60;;;16.40;99.90;;;;;;5076607;28;20510;-83
2022/10/12 10:15:28;;;;;;;30.27;13.73;;;16.40;99.90;;;;;;5059432;28;20051;-85
2022/10/12 10:18:26;;;;;;;24.42;13.02;;;16.30;99.90;;;;;;5093241;28;20055;-84
2022/10/12 10:20:58;;;;;;;30.25;12.10;;;16.40;99.90;;;;;;5086415;28;20048;-83
2022/10/12 10:23:31;;;;;;;26.92;13.02;;;16.50;99.90;;;;;;5081440;28;20044;-83
2022/10/12 10:26:07;;;;;;;27.52;12.65;;;16.50;99.90;;;;;;5088665;28;20497;-84
2022/10/12 10:28:37;;;;;;;24.35;12.65;;;16.60;99.90;;;;;;5091345;28;20516;-85
2022/10/12 10:31:26;;;;;;;25.73;13.00;;;16.60;99.90;;;;;;5081146;28;20513;-83
2022/10/12 10:34:11;;;;;;;27.30;13.00;;;16.60;99.90;;;;;;5082040;28;20471;-82
2022/10/12 10:36:50;;;;;;;31.77;12.40;;;16.60;99.90;;;;;;5088194;28;20089;-82
2022/10/12 10:39:21;;;;;;;29.58;13.27;;;16.60;99.90;;;;;;5076676;28;20063;-85
2022/10/12 10:41:49;;;;;;;23.52;12.43;;;16.70;99.90;;;;;;5076863;28;20518;-82
2022/10/12 10:44:34;;;;;;;28.25;12.95;;;16.70;99.90;;;;;;5090333;28;20040;-82
2022/10/12 10:47:10;;;;;;;26.80;12.43;;;16.80;99.90;;;;;;5083817;28;20087;-83
2022/10/12 10:49:44;;;;;;;26.00;12.35;;;16.70;99.90;;;;;;5061364;28;20048;-83
2022/10/12 10:52:22;;;;;;;34.03;12.40;;;16.80;99.90;;;;;;5074484;28;20519;-82
2022/10/12 10:55:04;;;;;;;25.60;12.10;;;16.80;99.90;;;;;;5086561;28;20524;-83
2022/10/12 10:57:33;;;;;;;30.88;13.32;;;16.90;99.90;;;;;;5061346;28;20054;-82
2022/10/12 11:00:05;;;;;;;26.25;11.90;;;16.80;99.90;;;;;;5061424;28;20044;-82
2022/10/12 11:03:05;;;;;;;23.75;11.55;;;16.80;99.90;;;;;;5088344;28;20097;-82
2022/10/12 11:05:41;;;;;;;28.48;12.77;;;16.90;99.90;;;;;;5078949;28;20041;-82
2022/10/12 11:08:16;;;;;;;22.45;12.15;;;16.90;99.90;;;;;;5070118;28;20049;-82
2022/10/12 11:11:09;;;;;;;24.30;11.48;;;17.00;99.90;;;;;;5083834;28;20083;-84
2022/10/12 11:14:01;;;;;;;21.05;10.95;;;17.10;99.90;;;;;;5085834;28;20059;-82
2022/10/12 11:16:42;;;;;;;18.20;10.57;;;17.20;99.90;;;;;;5077827;28;20144;-82
2022/10/12 11:19:30;;;;;;;22.48;11.68;;;17.30;99.90;;;;;;5088896;28;20049;-84
2022/10/12 11:22:02;;;;;;;25.70;10.82;;;17.30;99.90;;;;;;5096057;28;20044;-84
2022/10/12 11:24:44;;;;;;;30.38;11.80;;;17.40;99.90;;;;;;5052791;28;20045;-85
2022/10/12 11:27:16;;;;;;;25.58;11.68;;;17.40;99.90;;;;;;5086931;28;20496;-85
2022/10/12 11:29:43;;;;;;;23.90;11.27;;;17.50;99.90;;;;;;5081873;28;20056;-85
2022/10/12 11:32:32;;;;;;;17.08;10.10;;;17.60;99.90;;;;;;5083867;28;20629;-83
2022/10/12 11:35:02;;;;;;;24.08;11.00;;;17.60;99.90;;;;;;5081033;28;20044;-85
2022/10/12 11:37:40;;;;;;;22.58;11.65;;;17.60;99.90;;;;;;5091567;28;20049;-85
2022/10/12 11:40:22;;;;;;;18.10;10.35;;;17.70;99.90;;;;;;5073558;28;20505;-85
2022/10/12 11:43:16;;;;;;;16.30;9.50;;;17.70;99.90;;;;;;5079580;28;20053;-86
2022/10/12 11:45:46;;;;;;;21.00;9.90;;;17.80;99.90;;;;;;5077242;28;20049;-84
2022/10/12 11:48:23;;;;;;;16.23;9.10;;;17.80;99.90;;;;;;5087319;28;20056;-84
2022/10/12 11:50:55;;;;;;;;;;;17.80;99.90;;;;;;5062397;28;20078;-85
2022/10/12 11:54:10;;;;;;;25.95;10.30;;;17.80;99.90;;;;;;5087798;28;19920;-83
2022/10/12 11:56:42;;;;;;;20.42;9.30;;;17.80;99.90;;;;;;5088823;28;20053;-83
2022/10/12 11:59:34;;;;;;;15.50;9.05;;;17.70;99.90;;;;;;5064912;28;20048;-85
2022/10/12 12:02:13;;;;;;;17.92;9.10;;;17.80;99.90;;;;;;5080088;28;20108;-83
2022/10/12 12:04:44;;;;;;;15.65;8.55;;;17.90;99.90;;;;;;5081078;28;20044;-83
2022/10/12 12:07:33;;;;;;;18.67;8.25;;;18.00;99.90;;;;;;5084514;28;20052;-87
2022/10/12 12:09:59;;;;;;;25.13;10.15;;;17.90;99.90;;;;;;5076761;28;20059;-84
2022/10/12 12:12:28;;;;;;;19.15;8.68;;;17.90;99.90;;;;;;5081272;28;20048;-83
2022/10/12 12:14:59;;;;;;;16.63;8.23;;;17.90;99.90;;;;;;5084825;28;20052;-84
2022/10/12 12:17:29;;;;;;;23.70;8.98;;;17.90;99.90;;;;;;5078547;28;20083;-84
2022/10/12 12:20:00;;;;;;;21.90;8.60;;;17.90;99.90;;;;;;5081727;28;20048;-84
2022/10/12 12:22:31;;;;;;;16.25;8.88;;;17.80;99.90;;;;;;5089723;28;20041;-84
2022/10/12 12:25:16;;;;;;;22.90;9.40;;;17.70;99.90;;;;;;5084018;28;20044;-86
2022/10/12 12:27:59;;;;;;;23.70;9.60;;;17.40;99.90;;;;;;5061208;28;20041;-83
2022/10/12 12:30:35;;;;;;;16.58;8.73;;;17.30;99.90;;;;;;5084841;28;20051;-86
2022/10/12 12:33:23;;;;;;;21.05;8.85;;;17.30;99.90;;;;;;5066092;28;20052;-84
2022/10/12 12:36:00;;;;;;;18.40;8.77;;;17.30;99.90;;;;;;5072815;28;20068;-85
2022/10/12 12:38:32;;;;;;;22.83;9.75;;;17.30;99.90;;;;;;5087017;28;20080;-85
2022/10/12 12:41:03;;;;;;;21.42;10.02;;;17.40;99.90;;;;;;5070629;28;20417;-83
2022/10/12 12:43:30;;;;;;;21.65;8.98;;;17.40;99.90;;;;;;5082048;28;20044;-86
2022/10/12 12:45:59;;;;;;;20.80;8.57;;;17.40;99.90;;;;;;5088449;28;20051;-87
2022/10/12 12:48:38;;;;;;;14.02;8.50;;;17.50;99.90;;;;;;5083434;28;20058;-85
2022/10/12 12:51:11;;;;;;;17.92;8.65;;;17.50;99.90;;;;;;5088224;28;20045;-86
2022/10/12 12:54:01;;;;;;;17.40;9.82;;;17.50;99.90;;;;;;5080424;28;20056;-85
2022/10/12 12:56:48;;;;;;;21.33;9.35;;;17.40;99.90;;;;;;5073383;28;20124;-86